createdAt,value
2018-02-16T00:00:47.052Z,20.50
2018-02-16T00:03:14.571Z,21.60
2018-02-16T00:05:42.868Z,21.60
2018-02-16T00:08:10.389Z,18.93
2018-02-16T00:10:37.947Z,18.93
2018-02-16T00:13:05.460Z,18.63
2018-02-16T00:15:33.010Z,18.73
2018-02-16T00:18:00.529Z,17.90
2018-02-16T00:20:28.833Z,17.00
2018-02-16T00:22:56.363Z,16.13
2018-02-16T00:25:24.655Z,17.13
2018-02-16T00:27:52.235Z,16.47
2018-02-16T00:30:19.739Z,16.60
2018-02-16T00:32:47.270Z,17.87
2018-02-16T00:35:14.817Z,15.17
2018-02-16T00:37:42.340Z,14.90
2018-02-16T00:40:10.645Z,14.27
2018-02-16T00:42:38.139Z,13.00
2018-02-16T00:45:05.655Z,10.80
2018-02-16T00:47:33.263Z,10.23
2018-02-16T00:50:00.823Z,13.20
2018-02-16T00:52:28.365Z,9.87
2018-02-16T00:54:55.909Z,10.60
2018-02-16T00:57:23.451Z,11.77
2018-02-16T00:59:50.978Z,10.90
2018-02-16T01:02:18.509Z,13.33
2018-02-16T01:04:46.010Z,12.50
2018-02-16T01:07:13.585Z,11.07
2018-02-16T01:09:41.120Z,12.83
2018-02-16T01:12:08.623Z,13.50
2018-02-16T01:14:36.144Z,13.93
2018-02-16T01:17:03.634Z,10.90
2018-02-16T01:19:31.163Z,14.37
2018-02-16T01:21:58.688Z,15.47
2018-02-16T01:24:27.036Z,12.17
2018-02-16T01:26:54.543Z,11.87
2018-02-16T01:29:22.103Z,12.80
2018-02-16T01:31:49.619Z,12.70
2018-02-16T01:34:17.113Z,13.60
2018-02-16T01:36:45.408Z,13.30
2018-02-16T01:39:12.899Z,11.47
2018-02-16T01:41:40.432Z,11.57
2018-02-16T01:44:07.940Z,11.67
2018-02-16T01:46:36.240Z,10.13
2018-02-16T01:49:03.738Z,12.40
2018-02-16T01:51:31.238Z,13.07
2018-02-16T01:53:59.530Z,12.27
2018-02-16T01:56:27.029Z,13.07
2018-02-16T01:58:54.548Z,15.17
2018-02-16T02:01:22.048Z,12.53
2018-02-16T02:03:49.581Z,12.70
2018-02-16T02:06:17.099Z,14.60
2018-02-16T02:08:45.367Z,12.47
2018-02-16T02:11:13.669Z,12.30
2018-02-16T02:13:41.203Z,14.83
2018-02-16T02:16:09.469Z,13.87
2018-02-16T02:18:36.992Z,12.37
2018-02-16T02:21:04.527Z,11.67
2018-02-16T02:23:32.059Z,13.83
2018-02-16T02:26:00.347Z,17.10
2018-02-16T02:28:27.847Z,13.73
2018-02-16T02:30:55.359Z,14.57
2018-02-16T02:33:23.663Z,15.57
2018-02-16T02:35:51.164Z,13.60
2018-02-16T02:38:18.687Z,14.90
2018-02-16T02:40:46.236Z,11.93
2018-02-16T02:43:13.775Z,15.57
2018-02-16T02:45:41.272Z,11.67
2018-02-16T02:48:08.780Z,9.63
2018-02-16T02:50:37.060Z,10.47
2018-02-16T02:53:05.336Z,10.63
2018-02-16T02:55:32.841Z,11.13
2018-02-16T02:58:00.347Z,10.33
2018-02-16T03:00:27.840Z,12.10
2018-02-16T03:02:55.332Z,9.40
2018-02-16T03:05:22.859Z,12.10
2018-02-16T03:07:50.359Z,13.40
2018-02-16T03:10:18.642Z,13.53
2018-02-16T03:12:46.900Z,12.47
2018-02-16T03:15:14.420Z,12.80
2018-02-16T03:17:41.916Z,12.90
2018-02-16T03:20:09.438Z,8.97
2018-02-16T03:22:37.020Z,14.17
2018-02-16T03:25:06.033Z,12.77
2018-02-16T03:27:34.324Z,12.33
2018-02-16T03:30:02.586Z,16.70
2018-02-16T03:32:30.887Z,14.37
2018-02-16T03:34:58.405Z,13.37
2018-02-16T03:37:25.939Z,12.17
2018-02-16T03:39:53.447Z,11.83
2018-02-16T03:42:21.705Z,11.83
2018-02-16T03:44:49.215Z,9.00
2018-02-16T03:47:16.709Z,9.97
2018-02-16T03:49:44.243Z,9.57
2018-02-16T03:52:11.739Z,10.43
2018-02-16T03:54:40.030Z,5.17
2018-02-16T03:57:07.515Z,4.90
2018-02-16T03:59:35.009Z,5.07
2018-02-16T04:02:02.522Z,5.90
2018-02-16T04:04:30.603Z,5.47
2018-02-16T04:06:58.117Z,5.93
2018-02-16T04:09:26.367Z,5.97
2018-02-16T04:11:55.416Z,4.23
2018-02-16T04:14:22.915Z,5.10
2018-02-16T04:16:50.541Z,3.00
2018-02-16T04:19:18.046Z,3.53
2018-02-16T04:21:46.320Z,3.87
2018-02-16T04:24:13.852Z,3.00
2018-02-16T04:26:41.343Z,4.53
2018-02-16T04:29:09.627Z,5.97
2018-02-16T04:31:37.891Z,3.40
2018-02-16T04:34:06.192Z,3.00
2018-02-16T04:36:33.675Z,3.97
2018-02-16T04:39:01.209Z,5.00
2018-02-16T04:41:28.700Z,2.30
2018-02-16T04:43:56.228Z,3.20
2018-02-16T04:46:23.736Z,3.07
2018-02-16T04:48:51.249Z,3.03
2018-02-16T04:51:18.770Z,3.90
2018-02-16T04:53:47.038Z,2.00
2018-02-16T04:56:14.555Z,5.30
2018-02-16T04:58:42.052Z,2.60
2018-02-16T05:01:10.355Z,3.87
2018-02-16T05:03:37.854Z,2.47
2018-02-16T05:06:05.346Z,2.73
2018-02-16T05:08:32.872Z,4.53
2018-02-16T05:11:00.366Z,1.73
2018-02-16T05:13:28.667Z,2.13
2018-02-16T05:15:56.168Z,2.03
2018-02-16T05:18:23.695Z,3.50
2018-02-16T05:20:51.187Z,4.40
2018-02-16T05:23:18.687Z,3.13
2018-02-16T05:25:46.981Z,3.87
2018-02-16T05:28:14.503Z,4.93
2018-02-16T05:30:42.784Z,3.13
2018-02-16T05:33:11.056Z,4.33
2018-02-16T05:35:39.347Z,4.00
2018-02-16T05:38:07.596Z,3.33
2018-02-16T05:40:35.111Z,3.90
2018-02-16T05:43:02.597Z,2.70
2018-02-16T05:45:30.092Z,3.43
2018-02-16T05:47:58.370Z,4.57
2018-02-16T05:50:26.635Z,2.10
2018-02-16T05:52:54.916Z,3.00
2018-02-16T05:55:23.179Z,6.30
2018-02-16T05:57:51.463Z,4.30
2018-02-16T06:00:19.712Z,5.30
2018-02-16T06:02:47.225Z,7.20
2018-02-16T06:05:14.730Z,5.13
2018-02-16T06:07:42.242Z,2.57
2018-02-16T06:10:09.753Z,5.80
2018-02-16T06:12:37.249Z,5.03
2018-02-16T06:15:04.778Z,2.60
2018-02-16T06:17:33.035Z,3.90
2018-02-16T06:20:00.542Z,4.63
2018-02-16T06:22:28.056Z,5.37
2018-02-16T06:24:56.312Z,7.10
2018-02-16T06:27:23.840Z,7.30
2018-02-16T06:29:51.379Z,6.97
2018-02-16T06:32:18.909Z,11.33
2018-02-16T06:34:47.166Z,6.27
2018-02-16T06:37:14.681Z,7.33
2018-02-16T06:39:42.182Z,4.40
2018-02-16T06:42:09.704Z,3.80
2018-02-16T06:44:37.240Z,5.70
2018-02-16T06:47:04.751Z,5.57
2018-02-16T06:49:32.267Z,3.50
2018-02-16T06:51:59.762Z,7.47
2018-02-16T06:54:27.260Z,4.20
2018-02-16T06:56:54.816Z,3.10
2018-02-16T06:59:23.085Z,6.40
2018-02-16T07:01:51.360Z,4.43
2018-02-16T07:04:19.646Z,5.43
2018-02-16T07:06:47.192Z,4.73
2018-02-16T07:09:15.456Z,5.90
2018-02-16T07:11:42.970Z,8.50
2018-02-16T07:14:10.492Z,4.80
2018-02-16T07:16:37.990Z,5.30
2018-02-16T07:19:05.550Z,4.33
2018-02-16T07:21:33.042Z,7.50
2018-02-16T07:24:01.328Z,5.37
2018-02-16T07:26:29.594Z,5.93
2018-02-16T07:28:57.131Z,6.33
2018-02-16T07:31:24.652Z,4.63
2018-02-16T07:33:52.196Z,7.43
2018-02-16T07:36:19.751Z,8.17
2018-02-16T07:38:47.250Z,3.90
2018-02-16T07:41:14.786Z,6.20
2018-02-16T07:43:42.289Z,6.13
2018-02-16T07:46:09.811Z,6.63
2018-02-16T07:48:37.326Z,8.07
2018-02-16T07:51:05.607Z,5.30
2018-02-16T07:53:33.888Z,5.97
2018-02-16T07:56:01.388Z,5.07
2018-02-16T07:58:28.907Z,5.63
2018-02-16T08:00:56.399Z,4.20
2018-02-16T08:03:23.940Z,5.20
2018-02-16T08:05:51.429Z,5.93
2018-02-16T08:08:18.976Z,8.23
2018-02-16T08:10:46.463Z,6.33
2018-02-16T08:13:13.988Z,9.23
2018-02-16T08:15:41.474Z,6.03
2018-02-16T08:18:08.970Z,10.17
2018-02-16T08:20:36.482Z,6.63
2018-02-16T08:23:03.977Z,6.80
2018-02-16T08:25:31.498Z,4.80
2018-02-16T08:27:58.990Z,7.60
2018-02-16T08:30:26.530Z,7.23
2018-02-16T08:32:54.788Z,6.43
2018-02-16T08:35:22.270Z,6.00
2018-02-16T08:37:50.547Z,8.67
2018-02-16T08:40:18.819Z,5.60
2018-02-16T08:42:47.131Z,8.13
2018-02-16T08:45:14.620Z,7.70
2018-02-16T08:47:42.190Z,5.70
2018-02-16T08:50:09.696Z,8.23
2018-02-16T08:52:37.215Z,6.60
2018-02-16T08:55:05.494Z,7.47
2018-02-16T08:57:33.783Z,7.50
2018-02-16T09:00:02.056Z,9.10
2018-02-16T09:02:29.553Z,7.20
2018-02-16T09:04:57.072Z,6.83
2018-02-16T09:07:25.332Z,9.57
2018-02-16T09:09:53.615Z,8.80
2018-02-16T09:12:21.865Z,7.00
2018-02-16T09:14:49.372Z,6.63
2018-02-16T09:17:16.902Z,6.40
2018-02-16T09:19:45.238Z,5.50
2018-02-16T09:22:12.731Z,7.03
2018-02-16T09:24:41.021Z,5.20
2018-02-16T09:27:09.271Z,7.20
2018-02-16T09:29:36.790Z,8.30
2018-02-16T09:32:04.302Z,4.53
2018-02-16T09:34:32.562Z,6.40
2018-02-16T09:37:00.109Z,8.93
2018-02-16T09:39:28.567Z,4.37
2018-02-16T09:41:56.077Z,6.27
2018-02-16T09:44:24.349Z,4.77
2018-02-16T09:46:52.626Z,4.73
2018-02-16T09:49:20.897Z,7.50
2018-02-16T09:51:49.181Z,6.97
2018-02-16T09:54:16.674Z,4.03
2018-02-16T09:56:44.235Z,4.97
2018-02-16T09:59:11.745Z,5.80
2018-02-16T10:01:40.022Z,8.10
2018-02-16T10:04:08.323Z,4.63
2018-02-16T10:06:35.830Z,8.27
2018-02-16T10:09:03.337Z,3.83
2018-02-16T10:11:30.832Z,3.70
2018-02-16T10:13:58.371Z,4.03
2018-02-16T10:16:25.876Z,5.70
2018-02-16T10:18:54.130Z,3.40
2018-02-16T10:21:21.645Z,5.60
2018-02-16T10:23:49.171Z,5.00
2018-02-16T10:26:17.476Z,3.87
2018-02-16T10:28:44.975Z,3.40
2018-02-16T10:31:12.511Z,5.30
2018-02-16T10:33:40.005Z,2.93
2018-02-16T10:36:08.294Z,4.73
2018-02-16T10:38:36.609Z,3.20
2018-02-16T10:41:04.112Z,6.13
2018-02-16T10:43:31.615Z,6.60
2018-02-16T10:45:59.142Z,5.03
2018-02-16T10:48:27.433Z,5.83
2018-02-16T10:50:54.972Z,3.40
2018-02-16T10:53:23.272Z,4.00
2018-02-16T10:55:50.819Z,4.73
2018-02-16T10:58:18.315Z,4.77
2018-02-16T11:00:51.606Z,4.80
2018-02-16T11:03:24.887Z,5.17
2018-02-16T11:05:53.196Z,6.53
2018-02-16T11:08:26.536Z,6.37
2018-02-16T11:10:54.087Z,4.03
2018-02-16T11:13:22.367Z,5.13
2018-02-16T11:15:50.684Z,5.40
2018-02-16T11:18:18.217Z,5.87
2018-02-16T11:20:45.716Z,6.90
2018-02-16T11:23:13.247Z,4.17
2018-02-16T11:25:40.739Z,6.90
2018-02-16T11:28:08.284Z,4.33
2018-02-16T11:30:35.795Z,5.70
2018-02-16T11:33:03.280Z,4.60
2018-02-16T11:35:30.805Z,8.60
2018-02-16T11:37:58.315Z,7.40
2018-02-16T11:40:25.842Z,4.30
2018-02-16T11:42:53.354Z,6.70
2018-02-16T11:45:20.884Z,5.70
2018-02-16T11:47:48.384Z,5.67
2018-02-16T11:50:16.703Z,5.90
2018-02-16T11:52:44.226Z,5.77
2018-02-16T11:55:11.739Z,5.07
2018-02-16T11:57:39.301Z,4.33
2018-02-16T12:00:06.818Z,8.47
2018-02-16T12:02:34.310Z,7.00
2018-02-16T12:05:01.855Z,4.17
2018-02-16T12:07:29.361Z,7.03
2018-02-16T12:09:57.676Z,2.93
2018-02-16T12:12:25.195Z,3.50
2018-02-16T12:14:53.495Z,2.90
2018-02-16T12:17:21.018Z,4.53
2018-02-16T12:19:48.531Z,3.13
2018-02-16T12:22:16.053Z,5.63
2018-02-16T12:24:43.585Z,5.90
2018-02-16T12:27:11.110Z,5.83
2018-02-16T12:29:38.611Z,4.33
2018-02-16T12:32:06.917Z,3.43
2018-02-16T12:34:34.429Z,3.20
2018-02-16T12:37:01.967Z,4.70
2018-02-16T12:39:29.481Z,5.67
2018-02-16T12:41:57.009Z,9.67
2018-02-16T12:44:24.523Z,6.17
2018-02-16T12:46:52.044Z,6.23
2018-02-16T12:49:20.338Z,3.60
2018-02-16T12:51:47.836Z,2.77
2018-02-16T12:54:15.375Z,4.00
2018-02-16T12:56:42.880Z,6.30
2018-02-16T12:59:11.180Z,5.63
2018-02-16T13:01:38.664Z,5.60
2018-02-16T13:04:06.191Z,6.67
2018-02-16T13:06:34.477Z,6.50
2018-02-16T13:09:01.991Z,5.83
2018-02-16T13:11:30.304Z,5.07
2018-02-16T13:13:57.820Z,4.37
2018-02-16T13:16:26.117Z,6.10
2018-02-16T13:18:54.396Z,4.57
2018-02-16T13:21:22.708Z,10.90
2018-02-16T13:23:50.224Z,4.90
2018-02-16T13:26:18.607Z,8.70
2018-02-16T13:28:46.901Z,7.00
2018-02-16T13:31:14.424Z,4.90
2018-02-16T13:33:41.959Z,7.67
2018-02-16T13:36:09.508Z,5.43
2018-02-16T13:38:37.058Z,4.40
2018-02-16T13:41:04.552Z,6.00
2018-02-16T13:43:32.100Z,5.20
2018-02-16T13:45:59.612Z,7.30
2018-02-16T13:48:27.219Z,8.13
2018-02-16T13:50:54.751Z,3.97
2018-02-16T13:53:22.261Z,8.00
2018-02-16T13:55:50.547Z,5.70
2018-02-16T13:58:18.833Z,8.40
2018-02-16T14:00:46.337Z,5.20
2018-02-16T14:03:13.859Z,8.03
2018-02-16T14:05:41.399Z,8.70
2018-02-16T14:08:09.675Z,6.57
2018-02-16T14:10:38.172Z,5.83
2018-02-16T14:13:05.532Z,5.97
2018-02-16T14:15:33.057Z,4.70
2018-02-16T14:18:00.562Z,7.17
2018-02-16T14:20:28.101Z,6.80
2018-02-16T14:22:55.604Z,4.60
2018-02-16T14:25:23.137Z,9.73
2018-02-16T14:27:50.657Z,7.30
2018-02-16T14:30:18.152Z,9.40
2018-02-16T14:32:45.747Z,3.63
2018-02-16T14:35:13.218Z,8.23
2018-02-16T14:37:41.499Z,7.83
2018-02-16T14:40:09.760Z,8.80
2018-02-16T14:42:38.060Z,7.47
2018-02-16T14:45:05.586Z,5.50
2018-02-16T14:47:33.879Z,9.23
2018-02-16T14:50:02.175Z,5.83
2018-02-16T14:52:29.676Z,5.17
2018-02-16T14:54:57.213Z,12.30
2018-02-16T14:57:24.743Z,7.83
2018-02-16T14:59:52.268Z,8.80
2018-02-16T15:02:19.775Z,4.70
2018-02-16T15:04:47.301Z,5.63
2018-02-16T15:07:15.573Z,9.40
2018-02-16T15:09:43.865Z,5.27
2018-02-16T15:12:11.427Z,8.10
2018-02-16T15:14:38.964Z,8.50
2018-02-16T15:17:07.247Z,6.30
2018-02-16T15:19:35.540Z,6.23
2018-02-16T15:22:03.047Z,8.67
2018-02-16T15:24:31.362Z,6.93
2018-02-16T15:26:58.860Z,10.27
2018-02-16T15:29:26.386Z,6.40
2018-02-16T15:31:53.939Z,7.53
2018-02-16T15:34:21.468Z,8.20
2018-02-16T15:36:49.792Z,7.40
2018-02-16T15:39:17.296Z,5.77
2018-02-16T15:41:44.842Z,8.97
2018-02-16T15:44:12.417Z,13.10
2018-02-16T15:46:40.717Z,7.80
2018-02-16T15:49:08.261Z,9.30
2018-02-16T15:51:36.559Z,8.00
2018-02-16T15:54:04.070Z,7.67
2018-02-16T15:56:31.893Z,10.43
2018-02-16T15:58:59.398Z,7.33
2018-02-16T16:01:26.917Z,8.40
2018-02-16T16:03:54.444Z,8.70
2018-02-16T16:06:22.735Z,7.37
2018-02-16T16:08:50.311Z,12.27
2018-02-16T16:11:17.832Z,8.20
2018-02-16T16:13:45.402Z,32.93
2018-02-16T16:16:12.921Z,27.27
2018-02-16T16:18:40.419Z,25.27
2018-02-16T16:21:07.975Z,20.50
2018-02-16T16:23:35.495Z,15.17
2018-02-16T16:26:03.021Z,14.87
2018-02-16T16:28:30.564Z,11.73
2018-02-16T16:30:58.104Z,14.67
2018-02-16T16:33:25.639Z,11.30
2018-02-16T16:35:53.942Z,14.57
2018-02-16T16:38:21.444Z,12.53
2018-02-16T16:40:48.981Z,11.50
2018-02-16T16:43:16.508Z,14.63
2018-02-16T16:45:44.006Z,14.37
2018-02-16T16:48:11.539Z,13.50
2018-02-16T16:50:39.073Z,16.27
2018-02-16T16:53:07.393Z,11.90
2018-02-16T16:55:34.961Z,12.63
2018-02-16T16:58:02.513Z,11.00
2018-02-16T17:00:30.014Z,12.80
2018-02-16T17:02:58.304Z,9.17
2018-02-16T17:05:26.568Z,8.43
2018-02-16T17:07:54.876Z,17.00
2018-02-16T17:10:22.404Z,13.53
2018-02-16T17:12:50.700Z,16.40
2018-02-16T17:15:18.535Z,14.03
2018-02-16T17:17:46.812Z,9.60
2018-02-16T17:20:15.112Z,9.43
2018-02-16T17:22:42.619Z,9.13
2018-02-16T17:25:10.167Z,9.37
2018-02-16T17:27:37.682Z,14.60
2018-02-16T17:30:05.224Z,13.03
2018-02-16T17:32:33.500Z,16.93
2018-02-16T17:35:01.815Z,13.73
2018-02-16T17:37:29.335Z,12.97
2018-02-16T17:39:57.633Z,12.40
2018-02-16T17:42:25.217Z,12.70
2018-02-16T17:44:52.740Z,16.50
2018-02-16T17:47:20.264Z,18.80
2018-02-16T17:49:47.803Z,16.20
2018-02-16T17:52:15.304Z,14.47
2018-02-16T17:54:42.842Z,14.97
2018-02-16T17:57:10.356Z,13.90
2018-02-16T17:59:37.879Z,17.30
2018-02-16T18:02:06.192Z,16.03
2018-02-16T18:04:33.818Z,17.37
2018-02-16T18:07:02.121Z,19.00
2018-02-16T18:09:29.623Z,21.80
2018-02-16T18:11:57.153Z,18.60
2018-02-16T18:14:24.675Z,22.27
2018-02-16T18:16:52.248Z,15.47
2018-02-16T18:19:19.853Z,18.97
2018-02-16T18:21:47.425Z,37.33
2018-02-16T18:24:15.730Z,41.93
2018-02-16T18:26:43.241Z,46.07
2018-02-16T18:29:10.795Z,31.37
2018-02-16T18:31:38.325Z,31.97
2018-02-16T18:34:05.841Z,25.73
2018-02-16T18:36:34.114Z,27.10
2018-02-16T18:39:02.417Z,48.80
2018-02-16T18:41:29.947Z,49.27
2018-02-16T18:43:58.254Z,48.73
2018-02-16T18:46:25.782Z,45.03
2018-02-16T18:48:54.096Z,33.23
2018-02-16T18:51:21.614Z,35.50
2018-02-16T18:53:49.914Z,28.60
2018-02-16T18:56:17.452Z,31.43
2018-02-16T18:58:45.730Z,33.70
2018-02-16T19:01:14.036Z,42.83
2018-02-16T19:03:41.585Z,52.93
2018-02-16T19:06:09.099Z,54.30
2018-02-16T19:08:36.638Z,45.33
2018-02-16T19:11:04.153Z,34.53
2018-02-16T19:13:31.706Z,30.30
2018-02-16T19:15:59.246Z,28.57
2018-02-16T19:18:27.565Z,32.33
2018-02-16T19:20:55.087Z,25.23
2018-02-16T19:23:23.376Z,22.50
2018-02-16T19:25:50.899Z,20.17
2018-02-16T19:28:18.453Z,24.53
2018-02-16T19:30:45.955Z,23.70
2018-02-16T19:33:13.494Z,25.63
2018-02-16T19:35:41.805Z,21.03
2018-02-16T19:38:09.365Z,20.20
2018-02-16T19:40:36.934Z,22.57
2018-02-16T19:43:04.441Z,22.03
2018-02-16T19:45:32.709Z,20.53
2018-02-16T19:48:00.249Z,16.83
2018-02-16T19:50:27.782Z,17.53
2018-02-16T19:52:55.344Z,19.53
2018-02-16T19:55:22.860Z,18.37
2018-02-16T19:57:51.143Z,21.23
2018-02-16T20:00:18.804Z,20.23
2018-02-16T20:02:46.370Z,15.93
2018-02-16T20:05:13.886Z,17.80
2018-02-16T20:07:41.420Z,20.60
2018-02-16T20:10:08.987Z,19.20
2018-02-16T20:12:36.518Z,22.10
2018-02-16T20:15:04.050Z,19.27
2018-02-16T20:17:31.593Z,23.63
2018-02-16T20:19:59.886Z,20.00
2018-02-16T20:22:27.449Z,20.47
2018-02-16T20:24:54.957Z,17.60
2018-02-16T20:27:22.544Z,24.17
2018-02-16T20:29:50.820Z,18.73
2018-02-16T20:32:19.122Z,19.10
2018-02-16T20:34:46.657Z,22.80
2018-02-16T20:37:14.991Z,20.53
2018-02-16T20:39:42.514Z,17.90
2018-02-16T20:42:10.028Z,18.40
2018-02-16T20:44:37.556Z,19.03
2018-02-16T20:47:05.059Z,19.03
2018-02-16T20:49:33.372Z,20.33
2018-02-16T20:52:00.906Z,19.63
2018-02-16T20:54:28.465Z,18.00
2018-02-16T20:56:56.015Z,18.10
2018-02-16T20:59:23.567Z,19.93
2018-02-16T21:01:51.869Z,18.07
2018-02-16T21:04:19.376Z,19.40
2018-02-16T21:06:46.924Z,17.03
2018-02-16T21:09:14.443Z,18.53
2018-02-16T21:11:42.006Z,17.97
2018-02-16T21:14:09.528Z,17.63
2018-02-16T21:16:37.844Z,18.80
2018-02-16T21:19:05.364Z,18.73
2018-02-16T21:21:33.680Z,16.63
2018-02-16T21:24:01.180Z,19.63
2018-02-16T21:26:28.679Z,21.10
2018-02-16T21:28:56.227Z,22.47
2018-02-16T21:31:23.761Z,19.17
2018-02-16T21:33:51.285Z,19.70
2018-02-16T21:36:18.817Z,20.33
2018-02-16T21:38:46.354Z,22.27
2018-02-16T21:41:14.633Z,19.57
2018-02-16T21:43:42.144Z,19.23
2018-02-16T21:46:09.679Z,23.67
2018-02-16T21:48:37.230Z,26.97
2018-02-16T21:51:04.775Z,20.70
2018-02-16T21:53:32.279Z,21.77
2018-02-16T21:56:00.593Z,21.67
2018-02-16T21:58:28.092Z,23.87
2018-02-16T22:00:55.658Z,22.87
2018-02-16T22:03:23.153Z,21.87
2018-02-16T22:05:51.501Z,20.93
2018-02-16T22:08:19.005Z,19.97
2018-02-16T22:10:47.305Z,21.13
2018-02-16T22:13:14.849Z,28.27
2018-02-16T22:15:42.361Z,27.13
2018-02-16T22:18:09.889Z,23.53
2018-02-16T22:20:37.410Z,26.10
2018-02-16T22:23:05.719Z,22.33
2018-02-16T22:25:33.344Z,20.80
2018-02-16T22:28:00.902Z,23.03
2018-02-16T22:30:29.181Z,22.40
2018-02-16T22:32:57.588Z,17.30
2018-02-16T22:35:25.122Z,19.93
2018-02-16T22:37:52.645Z,19.30
2018-02-16T22:40:21.688Z,22.53
2018-02-16T22:42:49.191Z,20.67
2018-02-16T22:45:16.736Z,25.53
2018-02-16T22:47:44.253Z,21.97
2018-02-16T22:50:11.780Z,18.47
2018-02-16T22:52:39.349Z,22.27
2018-02-16T22:55:07.629Z,23.80
2018-02-16T22:57:36.025Z,20.63
2018-02-16T23:00:03.560Z,21.73
2018-02-16T23:02:31.108Z,22.47
2018-02-16T23:04:58.610Z,20.47
2018-02-16T23:07:26.174Z,16.53
2018-02-16T23:09:53.680Z,20.40
2018-02-16T23:12:21.211Z,17.03
2018-02-16T23:14:48.728Z,19.93
2018-02-16T23:17:16.330Z,15.50
2018-02-16T23:19:43.837Z,18.97
2018-02-16T23:22:11.382Z,18.77
2018-02-16T23:24:39.654Z,21.00
2018-02-16T23:27:07.919Z,20.03
2018-02-16T23:29:35.445Z,20.60
2018-02-16T23:32:02.944Z,20.20
2018-02-16T23:34:31.248Z,22.80
2018-02-16T23:36:58.759Z,19.83
2018-02-16T23:39:26.304Z,20.27
2018-02-16T23:41:53.821Z,19.70
2018-02-16T23:44:21.271Z,25.00
2018-02-16T23:46:48.800Z,20.30
2018-02-16T23:49:16.304Z,21.43
2018-02-16T23:51:43.836Z,21.27
2018-02-16T23:54:11.345Z,20.57
2018-02-16T23:56:38.892Z,20.30
2018-02-16T23:59:07.185Z,21.93
